createdAt,value
2023-09-23T00:02:19.617Z,2.08
2023-09-23T00:04:46.885Z,1.80
2023-09-23T00:07:13.970Z,4.00
2023-09-23T00:09:40.797Z,3.63
2023-09-23T00:12:07.847Z,2.38
2023-09-23T00:14:34.628Z,2.65
2023-09-23T00:17:01.459Z,2.63
2023-09-23T00:19:28.657Z,2.58
2023-09-23T00:21:55.632Z,2.17
2023-09-23T00:24:25.210Z,3.45
2023-09-23T00:26:52.062Z,2.92
2023-09-23T00:29:19.025Z,2.30
2023-09-23T00:31:45.922Z,2.05
2023-09-23T00:34:13.695Z,2.88
2023-09-23T00:36:40.800Z,2.50
2023-09-23T00:39:07.924Z,2.08
2023-09-23T00:41:34.733Z,2.13
2023-09-23T00:44:02.179Z,1.92
2023-09-23T00:46:29.126Z,2.60
2023-09-23T00:48:56.098Z,2.58
2023-09-23T00:51:22.991Z,2.17
2023-09-23T00:53:51.568Z,3.33
2023-09-23T00:56:21.906Z,2.85
2023-09-23T00:58:48.915Z,5.13
2023-09-23T01:01:16.004Z,2.28
2023-09-23T01:03:43.502Z,8.27
2023-09-23T01:06:17.049Z,3.08
2023-09-23T01:08:46.243Z,2.72
2023-09-23T01:11:14.565Z,2.95
2023-09-23T01:13:44.283Z,3.20
2023-09-23T01:16:14.635Z,3.67
2023-09-23T01:18:46.756Z,3.20
2023-09-23T01:21:14.092Z,4.25
2023-09-23T01:23:41.099Z,4.60
2023-09-23T01:26:12.845Z,4.15
2023-09-23T01:28:39.970Z,5.72
2023-09-23T01:31:07.934Z,3.28
2023-09-23T01:33:35.691Z,3.80
2023-09-23T01:36:05.901Z,5.05
2023-09-23T01:38:33.888Z,4.03
2023-09-23T01:41:05.392Z,5.07
2023-09-23T01:43:32.407Z,5.82
2023-09-23T01:46:05.089Z,3.78
2023-09-23T01:48:34.350Z,8.30
2023-09-23T01:51:01.382Z,4.63
2023-09-23T01:53:29.263Z,3.33
2023-09-23T01:55:56.686Z,3.22
2023-09-23T01:58:24.056Z,3.45
2023-09-23T02:00:52.438Z,4.15
2023-09-23T02:03:20.202Z,7.35
2023-09-23T02:05:48.071Z,6.35
2023-09-23T02:08:15.226Z,4.65
2023-09-23T02:10:47.242Z,4.07
2023-09-23T02:13:14.411Z,7.32
2023-09-23T02:15:41.267Z,3.72
2023-09-23T02:18:08.152Z,4.65
2023-09-23T02:20:35.672Z,3.50
2023-09-23T02:23:04.222Z,3.83
2023-09-23T02:25:31.205Z,5.28
2023-09-23T02:27:59.678Z,4.60
2023-09-23T02:30:26.814Z,6.68
2023-09-23T02:32:53.738Z,10.52
2023-09-23T02:35:21.346Z,6.88
2023-09-23T02:37:52.361Z,4.03
2023-09-23T02:40:19.912Z,6.60
2023-09-23T02:42:48.305Z,6.47
2023-09-23T02:45:17.570Z,4.33
2023-09-23T02:47:45.312Z,4.93
2023-09-23T02:50:16.642Z,5.93
2023-09-23T02:52:46.709Z,5.28
2023-09-23T02:55:16.332Z,6.88
2023-09-23T02:57:51.078Z,4.43
2023-09-23T03:00:20.291Z,5.65
2023-09-23T03:02:52.177Z,4.60
2023-09-23T03:05:22.657Z,5.93
2023-09-23T03:07:50.872Z,4.05
2023-09-23T03:10:30.175Z,5.20
2023-09-23T03:15:35.510Z,5.70
2023-09-23T03:18:03.576Z,4.93
2023-09-23T03:20:31.421Z,5.57
2023-09-23T03:22:58.777Z,4.70
2023-09-23T03:25:26.305Z,5.53
2023-09-23T03:27:53.925Z,4.68
2023-09-23T03:30:21.237Z,4.60
2023-09-23T03:32:48.467Z,6.80
2023-09-23T03:35:25.096Z,5.43
2023-09-23T03:37:52.480Z,4.15
2023-09-23T03:40:26.162Z,6.10
2023-09-23T03:42:53.493Z,3.33
2023-09-23T03:45:21.142Z,4.38
2023-09-23T03:47:48.183Z,3.90
2023-09-23T03:50:16.073Z,8.15
2023-09-23T03:52:43.522Z,6.18
2023-09-23T03:55:12.507Z,5.15
2023-09-23T03:57:41.308Z,4.38
2023-09-23T04:00:17.148Z,6.00
2023-09-23T04:02:48.527Z,4.57
2023-09-23T04:05:21.123Z,3.55
2023-09-23T04:07:51.591Z,4.72
2023-09-23T04:10:20.995Z,3.97
2023-09-23T04:12:47.872Z,4.05
2023-09-23T04:15:14.762Z,4.57
2023-09-23T04:17:41.906Z,5.03
2023-09-23T04:20:14.333Z,5.60
2023-09-23T04:22:42.378Z,6.75
2023-09-23T04:25:10.145Z,4.15
2023-09-23T04:27:37.910Z,2.67
2023-09-23T04:30:10.139Z,4.93
2023-09-23T04:32:37.804Z,4.60
2023-09-23T04:35:05.375Z,3.60
2023-09-23T04:37:37.970Z,5.45
2023-09-23T04:40:14.828Z,4.07
2023-09-23T04:42:43.335Z,4.22
2023-09-23T04:45:11.503Z,4.57
2023-09-23T04:47:39.322Z,4.97
2023-09-23T04:50:08.796Z,4.82
2023-09-23T04:55:03.479Z,3.42
2023-09-23T04:57:30.551Z,4.25
2023-09-23T04:59:58.703Z,5.95
2023-09-23T05:02:27.354Z,3.80
2023-09-23T05:04:54.899Z,9.43
2023-09-23T05:07:26.313Z,4.93
2023-09-23T05:09:54.098Z,3.97
2023-09-23T05:12:22.104Z,5.63
2023-09-23T05:14:49.736Z,3.28
2023-09-23T05:17:18.191Z,4.50
2023-09-23T05:19:47.636Z,4.75
2023-09-23T05:22:14.740Z,4.07
2023-09-23T05:24:42.818Z,4.00
2023-09-23T05:27:10.781Z,3.50
2023-09-23T05:29:37.825Z,4.38
2023-09-23T05:32:04.973Z,6.43
2023-09-23T05:34:32.749Z,3.58
2023-09-23T05:36:59.510Z,3.53
2023-09-23T05:39:27.062Z,4.15
2023-09-23T05:41:54.970Z,3.60
2023-09-23T05:44:21.812Z,5.55
2023-09-23T05:46:49.829Z,4.85
2023-09-23T05:49:16.858Z,4.25
2023-09-23T05:51:45.236Z,4.50
2023-09-23T05:54:13.024Z,3.07
2023-09-23T05:56:39.865Z,3.55
2023-09-23T05:59:08.593Z,6.97
2023-09-23T06:01:36.589Z,7.00
2023-09-23T06:04:05.068Z,7.57
2023-09-23T06:06:32.757Z,5.93
2023-09-23T06:08:59.804Z,8.45
2023-09-23T06:11:27.446Z,7.78
2023-09-23T06:13:54.449Z,8.27
2023-09-23T06:16:21.397Z,7.32
2023-09-23T06:18:49.139Z,6.75
2023-09-23T06:21:15.962Z,5.68
2023-09-23T06:23:42.789Z,7.97
2023-09-23T06:26:11.322Z,8.80
2023-09-23T06:28:38.250Z,6.30
2023-09-23T06:31:08.084Z,6.68
2023-09-23T06:33:35.155Z,4.38
2023-09-23T06:36:05.638Z,9.05
2023-09-23T06:38:33.903Z,8.95
2023-09-23T06:41:00.930Z,10.95
2023-09-23T06:43:28.085Z,5.60
2023-09-23T06:45:58.799Z,4.93
2023-09-23T06:48:26.651Z,6.60
2023-09-23T06:50:59.568Z,6.15
2023-09-23T06:53:26.413Z,5.88
2023-09-23T06:55:53.361Z,7.38
2023-09-23T06:58:20.189Z,7.57
2023-09-23T07:00:47.061Z,8.07
2023-09-23T07:03:13.965Z,7.15
2023-09-23T07:05:41.081Z,5.75
2023-09-23T07:08:08.734Z,8.23
2023-09-23T07:10:39.596Z,10.73
2023-09-23T07:13:09.191Z,8.75
2023-09-23T07:15:38.505Z,7.57
2023-09-23T07:18:09.235Z,8.30
2023-09-23T07:20:36.244Z,6.03
2023-09-23T07:23:04.320Z,7.60
2023-09-23T07:25:31.363Z,4.70
2023-09-23T07:28:01.335Z,6.32
2023-09-23T07:30:28.973Z,7.25
2023-09-23T07:32:55.787Z,7.50
2023-09-23T07:35:22.615Z,6.85
2023-09-23T07:37:49.473Z,4.63
2023-09-23T07:40:16.497Z,7.53
2023-09-23T07:42:43.274Z,5.60
2023-09-23T07:45:10.794Z,9.27
2023-09-23T07:47:37.653Z,5.70
2023-09-23T07:50:04.964Z,10.80
2023-09-23T07:52:34.951Z,10.32
2023-09-23T07:55:02.373Z,7.20
2023-09-23T07:57:29.439Z,8.55
2023-09-23T07:59:56.263Z,7.53
2023-09-23T08:02:24.030Z,6.28
2023-09-23T08:04:51.150Z,6.35
2023-09-23T08:07:18.333Z,11.70
2023-09-23T08:09:45.912Z,5.28
2023-09-23T08:12:12.698Z,8.13
2023-09-23T08:14:39.523Z,6.47
2023-09-23T08:17:06.356Z,7.03
2023-09-23T08:19:33.227Z,9.57
2023-09-23T08:22:00.199Z,4.88
2023-09-23T08:24:27.044Z,8.73
2023-09-23T08:26:54.528Z,5.32
2023-09-23T08:29:21.518Z,9.25
2023-09-23T08:31:49.476Z,7.35
2023-09-23T08:34:18.218Z,8.60
2023-09-23T08:36:45.067Z,7.80
2023-09-23T08:39:12.993Z,7.70
2023-09-23T08:41:40.232Z,8.55
2023-09-23T08:44:07.194Z,8.07
2023-09-23T08:46:34.279Z,5.38
2023-09-23T08:49:01.584Z,9.40
2023-09-23T08:51:28.915Z,10.80
2023-09-23T08:53:56.569Z,8.00
2023-09-23T08:56:23.524Z,5.85
2023-09-23T08:58:50.626Z,5.80
2023-09-23T09:01:18.473Z,8.27
2023-09-23T09:03:46.605Z,7.07
2023-09-23T09:06:19.275Z,6.97
2023-09-23T09:08:46.996Z,8.25
2023-09-23T09:11:22.468Z,6.30
2023-09-23T09:13:50.806Z,5.72
2023-09-23T09:16:17.872Z,9.18
2023-09-23T09:18:44.975Z,7.03
2023-09-23T09:21:11.978Z,5.47
2023-09-23T09:23:39.646Z,7.05
2023-09-23T09:26:06.494Z,6.90
2023-09-23T09:28:33.554Z,8.57
2023-09-23T09:31:01.552Z,8.65
2023-09-23T09:33:30.445Z,7.22
2023-09-23T09:35:57.839Z,11.65
2023-09-23T09:38:27.142Z,11.93
2023-09-23T09:41:03.725Z,6.78
2023-09-23T09:43:35.073Z,6.88
2023-09-23T09:46:09.949Z,5.25
2023-09-23T09:48:44.287Z,7.28
2023-09-23T09:51:15.282Z,5.60
2023-09-23T09:53:44.181Z,5.35
2023-09-23T09:56:11.729Z,8.93
2023-09-23T09:58:39.402Z,11.82
2023-09-23T10:01:13.852Z,11.70
2023-09-23T10:03:44.760Z,6.75
2023-09-23T10:06:20.363Z,10.98
2023-09-23T10:08:50.371Z,10.93
2023-09-23T10:11:18.135Z,7.20
2023-09-23T10:13:45.413Z,12.85
2023-09-23T10:16:14.455Z,9.23
2023-09-23T10:18:42.450Z,6.85
2023-09-23T10:21:22.157Z,10.55
2023-09-23T10:23:55.688Z,6.05
2023-09-23T10:26:24.715Z,5.53
2023-09-23T10:29:09.881Z,6.43
2023-09-23T10:31:36.900Z,5.85
2023-09-23T10:34:11.448Z,6.18
2023-09-23T10:36:38.469Z,7.88
2023-09-23T10:39:08.379Z,8.70
2023-09-23T10:41:36.399Z,4.22
2023-09-23T10:44:04.555Z,5.30
2023-09-23T10:46:32.112Z,6.38
2023-09-23T10:48:59.927Z,5.28
2023-09-23T10:51:27.613Z,6.28
2023-09-23T10:53:56.926Z,4.90
2023-09-23T10:56:26.374Z,5.63
2023-09-23T10:58:53.594Z,5.50
2023-09-23T11:01:22.122Z,6.32
2023-09-23T11:03:49.417Z,18.45
2023-09-23T11:06:17.868Z,8.52
2023-09-23T11:08:45.460Z,6.53
2023-09-23T11:11:14.004Z,8.23
2023-09-23T11:13:41.270Z,7.10
2023-09-23T11:16:11.806Z,8.55
2023-09-23T11:18:39.273Z,5.50
2023-09-23T11:21:06.671Z,7.50
2023-09-23T11:23:35.025Z,6.93
2023-09-23T11:26:03.658Z,4.10
2023-09-23T11:28:31.103Z,5.47
2023-09-23T11:30:59.489Z,5.72
2023-09-23T11:33:26.900Z,5.07
2023-09-23T11:35:55.957Z,6.18
2023-09-23T11:40:49.838Z,4.57
2023-09-23T11:43:17.091Z,5.57
2023-09-23T11:45:44.584Z,4.95
2023-09-23T11:48:11.966Z,5.60
2023-09-23T11:50:39.788Z,5.53
2023-09-23T11:53:06.941Z,5.55
2023-09-23T11:55:34.739Z,10.75
2023-09-23T11:58:01.878Z,6.38
2023-09-23T12:00:29.846Z,5.75
2023-09-23T12:02:58.770Z,9.32
2023-09-23T12:05:31.833Z,6.65
2023-09-23T12:08:02.633Z,6.05
2023-09-23T12:10:31.656Z,5.55
2023-09-23T12:13:04.414Z,6.00
2023-09-23T12:15:35.434Z,8.32
2023-09-23T12:18:02.557Z,5.80
2023-09-23T12:20:29.827Z,5.10
2023-09-23T12:22:59.913Z,7.88
2023-09-23T12:25:27.082Z,6.05
2023-09-23T12:27:53.958Z,7.68
2023-09-23T12:30:21.006Z,7.72
2023-09-23T12:32:47.981Z,10.25
2023-09-23T12:35:15.052Z,5.32
2023-09-23T12:37:42.178Z,8.27
2023-09-23T12:40:11.298Z,5.97
2023-09-23T12:42:38.346Z,8.00
2023-09-23T12:45:07.672Z,10.50
2023-09-23T12:47:53.014Z,9.07
2023-09-23T12:50:23.360Z,6.10
2023-09-23T12:52:50.284Z,6.63
2023-09-23T12:55:17.234Z,9.55
2023-09-23T12:57:44.115Z,4.15
2023-09-23T13:00:11.283Z,5.30
2023-09-23T13:02:38.182Z,8.52
2023-09-23T13:05:05.486Z,5.85
2023-09-23T13:07:32.327Z,7.43
2023-09-23T13:09:59.055Z,6.68
2023-09-23T13:12:25.946Z,8.25
2023-09-23T13:14:53.294Z,8.13
2023-09-23T13:17:20.108Z,7.75
2023-09-23T13:19:47.792Z,10.38
2023-09-23T13:22:14.690Z,5.20
2023-09-23T13:24:41.459Z,6.53
2023-09-23T13:27:08.255Z,6.43
2023-09-23T13:29:35.135Z,5.32
2023-09-23T13:32:02.365Z,6.00
2023-09-23T13:34:29.303Z,6.13
2023-09-23T13:36:56.133Z,4.80
2023-09-23T13:39:23.096Z,6.80
2023-09-23T13:41:50.052Z,5.55
2023-09-23T13:44:16.842Z,4.28
2023-09-23T13:46:43.765Z,4.45
2023-09-23T13:49:11.772Z,6.18
2023-09-23T13:51:38.533Z,7.15
2023-09-23T13:54:05.459Z,4.53
2023-09-23T13:56:32.285Z,5.60
2023-09-23T13:58:59.024Z,5.40
2023-09-23T14:01:25.931Z,3.65
2023-09-23T14:03:53.132Z,5.10
2023-09-23T14:06:20.013Z,7.50
2023-09-23T14:08:47.100Z,4.80
2023-09-23T14:11:14.531Z,11.77
2023-09-23T14:13:41.551Z,14.68
2023-09-23T14:16:09.024Z,16.15
2023-09-23T14:18:36.377Z,19.20
2023-09-23T14:21:03.638Z,12.27
2023-09-23T14:23:31.792Z,11.70
2023-09-23T14:25:58.806Z,12.60
2023-09-23T14:28:26.110Z,10.90
2023-09-23T14:30:52.944Z,11.57
2023-09-23T14:33:19.792Z,8.80
2023-09-23T14:35:46.719Z,8.85
2023-09-23T14:38:13.792Z,11.70
2023-09-23T14:40:40.628Z,11.15
2023-09-23T14:43:07.409Z,7.40
2023-09-23T14:45:34.832Z,12.00
2023-09-23T14:48:01.924Z,11.27
2023-09-23T14:50:28.844Z,11.25
2023-09-23T14:52:57.125Z,7.57
2023-09-23T14:55:24.035Z,6.67
2023-09-23T14:57:50.944Z,15.45
2023-09-23T15:00:18.019Z,7.68
2023-09-23T15:02:45.304Z,9.60
2023-09-23T15:05:13.600Z,9.40
2023-09-23T15:07:40.629Z,10.02
2023-09-23T15:10:08.176Z,8.88
2023-09-23T15:12:36.381Z,8.07
2023-09-23T15:15:07.892Z,6.73
2023-09-23T15:17:36.948Z,7.15
2023-09-23T15:22:30.569Z,10.82
2023-09-23T15:24:57.398Z,6.25
2023-09-23T15:27:24.248Z,5.38
2023-09-23T15:29:52.975Z,9.20
2023-09-23T15:32:19.832Z,21.90
2023-09-23T15:34:47.893Z,23.88
2023-09-23T15:37:14.632Z,27.73
2023-09-23T15:39:41.426Z,23.83
2023-09-23T15:42:08.221Z,24.35
2023-09-23T15:44:35.206Z,25.48
2023-09-23T15:47:02.012Z,18.23
2023-09-23T15:49:28.782Z,27.73
2023-09-23T15:52:10.810Z,21.92
2023-09-23T15:54:38.362Z,18.65
2023-09-23T15:57:05.100Z,26.00
2023-09-23T15:59:31.908Z,16.77
2023-09-23T16:01:58.765Z,17.45
2023-09-23T16:04:26.047Z,24.77
2023-09-23T16:06:53.029Z,12.90
2023-09-23T16:09:20.490Z,21.52
2023-09-23T16:11:47.324Z,14.13
2023-09-23T16:14:14.213Z,16.38
2023-09-23T16:16:41.114Z,15.93
2023-09-23T16:19:08.246Z,19.75
2023-09-23T16:21:35.072Z,12.77
2023-09-23T16:24:01.874Z,12.23
2023-09-23T16:26:28.673Z,9.27
2023-09-23T16:28:56.404Z,12.77
2023-09-23T16:31:23.243Z,13.18
2023-09-23T16:33:50.119Z,13.63
2023-09-23T16:36:17.794Z,10.85
2023-09-23T16:38:47.196Z,12.70
2023-09-23T16:41:14.278Z,13.10
2023-09-23T16:43:41.244Z,11.52
2023-09-23T16:46:09.805Z,9.85
2023-09-23T16:48:37.106Z,15.43
2023-09-23T16:51:04.128Z,7.70
2023-09-23T16:53:31.043Z,13.00
2023-09-23T16:55:57.885Z,11.98
2023-09-23T16:58:24.774Z,9.98
2023-09-23T17:00:51.556Z,14.93
2023-09-23T17:03:18.497Z,8.02
2023-09-23T17:05:47.857Z,9.00
2023-09-23T17:08:14.731Z,10.32
2023-09-23T17:10:41.527Z,9.60
2023-09-23T17:13:08.376Z,8.48
2023-09-23T17:15:35.190Z,11.25
2023-09-23T17:18:02.367Z,8.27
2023-09-23T17:20:30.826Z,9.43
2023-09-23T17:22:57.678Z,11.90
2023-09-23T17:25:24.713Z,7.93
2023-09-23T17:27:51.565Z,9.95
2023-09-23T17:30:18.413Z,6.15
2023-09-23T17:32:45.480Z,7.75
2023-09-23T17:35:13.747Z,8.88
2023-09-23T17:37:40.548Z,8.55
2023-09-23T17:40:08.122Z,12.93
2023-09-23T17:42:34.933Z,8.00
2023-09-23T17:45:01.722Z,9.85
2023-09-23T17:47:28.801Z,8.25
2023-09-23T17:49:55.654Z,8.15
2023-09-23T17:52:22.505Z,8.70
2023-09-23T17:54:49.738Z,5.65
2023-09-23T17:57:16.768Z,8.57
2023-09-23T17:59:43.633Z,8.45
2023-09-23T18:02:10.481Z,11.25
2023-09-23T18:04:37.753Z,8.95
2023-09-23T18:07:05.527Z,7.22
2023-09-23T18:09:32.329Z,6.32
2023-09-23T18:11:59.087Z,8.32
2023-09-23T18:14:26.041Z,6.25
2023-09-23T18:16:53.440Z,8.27
2023-09-23T18:19:20.200Z,5.68
2023-09-23T18:21:47.199Z,13.88
2023-09-23T18:24:14.075Z,11.20
2023-09-23T18:26:41.022Z,10.02
2023-09-23T18:29:08.053Z,6.13
2023-09-23T18:31:34.925Z,9.23
2023-09-23T18:34:01.756Z,4.65
2023-09-23T18:36:28.642Z,6.57
2023-09-23T18:38:55.452Z,10.20
2023-09-23T18:41:22.352Z,5.43
2023-09-23T18:43:49.953Z,7.80
2023-09-23T18:46:16.855Z,6.03
2023-09-23T18:48:43.792Z,5.68
2023-09-23T18:51:10.734Z,5.88
2023-09-23T18:53:44.270Z,5.75
2023-09-23T18:56:11.105Z,5.22
2023-09-23T18:58:37.943Z,5.00
2023-09-23T19:01:05.320Z,10.18
2023-09-23T19:03:32.444Z,6.88
2023-09-23T19:06:00.287Z,4.95
2023-09-23T19:08:27.246Z,6.53
2023-09-23T19:10:54.104Z,6.45
2023-09-23T19:13:21.007Z,4.78
2023-09-23T19:15:49.498Z,5.35
2023-09-23T19:18:17.100Z,4.78
2023-09-23T19:20:44.181Z,4.75
2023-09-23T19:23:12.084Z,5.20
2023-09-23T19:25:38.895Z,4.28
2023-09-23T19:28:05.929Z,6.20
2023-09-23T19:30:33.072Z,4.28
2023-09-23T19:32:59.951Z,4.80
2023-09-23T19:35:28.139Z,4.35
2023-09-23T19:37:54.977Z,3.78
2023-09-23T19:40:21.909Z,4.05
2023-09-23T19:42:48.968Z,3.83
2023-09-23T19:45:18.395Z,6.32
2023-09-23T19:47:45.377Z,6.57
2023-09-23T19:50:12.451Z,3.58
2023-09-23T19:52:39.252Z,7.57
2023-09-23T19:55:06.215Z,4.22
2023-09-23T19:57:33.022Z,2.92
2023-09-23T20:00:00.429Z,3.20
2023-09-23T20:02:27.720Z,3.60
2023-09-23T20:04:54.673Z,4.20
2023-09-23T20:07:24.525Z,3.58
2023-09-23T20:09:51.307Z,5.95
2023-09-23T20:12:18.096Z,3.75
2023-09-23T20:14:45.005Z,4.57
2023-09-23T20:17:15.704Z,5.35
2023-09-23T20:19:42.537Z,3.63
2023-09-23T20:22:09.480Z,4.80
2023-09-23T20:24:36.210Z,3.53
2023-09-23T20:27:03.221Z,4.30
2023-09-23T20:29:30.196Z,4.72
2023-09-23T20:31:57.001Z,5.07
2023-09-23T20:34:24.971Z,3.85
2023-09-23T20:36:51.931Z,2.80
2023-09-23T20:39:21.211Z,5.15
2023-09-23T20:41:48.428Z,4.70
2023-09-23T20:44:15.469Z,3.67
2023-09-23T20:46:42.340Z,3.35
2023-09-23T20:49:09.160Z,3.50
2023-09-23T20:51:35.924Z,5.50
2023-09-23T20:54:02.828Z,3.75
2023-09-23T20:56:30.065Z,4.93
2023-09-23T20:58:58.231Z,4.25
2023-09-23T21:01:25.026Z,4.68
2023-09-23T21:03:52.211Z,3.72
2023-09-23T21:06:19.573Z,2.42
2023-09-23T21:08:46.411Z,3.83
2023-09-23T21:11:14.334Z,2.95
2023-09-23T21:13:41.132Z,4.57
2023-09-23T21:16:09.351Z,3.60
2023-09-23T21:18:36.243Z,4.60
2023-09-23T21:21:04.394Z,3.05
2023-09-23T21:23:31.239Z,3.17
2023-09-23T21:25:58.077Z,4.70
2023-09-23T21:28:24.845Z,2.70
2023-09-23T21:30:52.427Z,2.83
2023-09-23T21:33:19.579Z,3.30
2023-09-23T21:35:46.540Z,4.20
2023-09-23T21:38:13.471Z,3.00
2023-09-23T21:40:41.276Z,2.50
2023-09-23T21:43:09.038Z,2.90
2023-09-23T21:45:39.359Z,7.75
2023-09-23T21:48:10.416Z,3.60
2023-09-23T21:50:37.517Z,3.47
2023-09-23T21:53:05.287Z,3.42
2023-09-23T21:55:32.067Z,3.28
2023-09-23T21:57:59.212Z,3.35
2023-09-23T22:00:29.274Z,2.45
2023-09-23T22:02:57.967Z,4.07
2023-09-23T22:05:29.382Z,4.80
2023-09-23T22:07:58.833Z,4.68
2023-09-23T22:10:26.898Z,5.57
2023-09-23T22:12:54.552Z,3.55
2023-09-23T22:15:22.129Z,4.18
2023-09-23T22:17:49.415Z,7.20
2023-09-23T22:20:16.778Z,3.55
2023-09-23T22:22:44.572Z,3.38
2023-09-23T22:25:15.805Z,2.92
2023-09-23T22:27:43.692Z,4.47
2023-09-23T22:30:18.058Z,2.90
2023-09-23T22:32:46.430Z,3.70
2023-09-23T22:35:16.703Z,3.80
2023-09-23T22:37:43.648Z,3.58
2023-09-23T22:40:14.869Z,2.97
2023-09-23T22:42:42.813Z,3.30
2023-09-23T22:45:17.698Z,4.63
2023-09-23T22:47:51.081Z,5.88
2023-09-23T22:50:19.631Z,3.35
2023-09-23T22:52:46.444Z,4.30
2023-09-23T22:55:14.789Z,7.18
2023-09-23T22:57:43.430Z,5.20
2023-09-23T23:00:13.370Z,3.63
2023-09-23T23:02:48.444Z,3.35
2023-09-23T23:05:18.774Z,3.75
2023-09-23T23:07:51.056Z,4.25
2023-09-23T23:10:18.323Z,4.55
2023-09-23T23:12:46.753Z,3.33
2023-09-23T23:15:17.228Z,3.43
2023-09-23T23:17:45.931Z,4.88
2023-09-23T23:20:23.534Z,2.88
2023-09-23T23:22:55.396Z,4.20
2023-09-23T23:25:25.550Z,4.00
2023-09-23T23:27:52.743Z,2.60
2023-09-23T23:30:20.528Z,4.57
2023-09-23T23:32:49.566Z,4.18
2023-09-23T23:35:23.059Z,2.70
2023-09-23T23:37:50.777Z,3.00
2023-09-23T23:40:21.214Z,4.00
2023-09-23T23:42:48.100Z,3.75
2023-09-23T23:45:16.907Z,3.55
2023-09-23T23:47:43.786Z,3.35
2023-09-23T23:50:11.004Z,3.13
2023-09-23T23:52:37.878Z,4.20
2023-09-23T23:55:05.006Z,3.05
2023-09-23T23:57:31.766Z,5.40
2023-09-23T23:59:58.667Z,3.88
